Time;durP1;ratioP1;P1;durP2;ratioP2;P2;SDS_P1;SDS_P2;PMS_P1;PMS_P2;Temp;Humidity;BMP_temperature;BMP_pressure;BME280_temperature;BME280_humidity;BME280_pressure;Samples;Min_cycle;Max_cycle;Signal;HPM_P1;HPM_P2
2021/06/20 00:01:46;;;;;;;5.25;2.72;;;22.20;99.90;;;;;;5116432;28;20020;-81
2021/06/20 00:04:13;;;;;;;4.97;2.67;;;22.20;99.90;;;;;;5103596;27;20026;-81
2021/06/20 00:06:39;;;;;;;4.75;2.47;;;22.20;99.90;;;;;;5118687;27;20072;-82
2021/06/20 00:09:06;;;;;;;3.53;2.60;;;22.20;99.90;;;;;;5119526;27;20449;-82
2021/06/20 00:11:33;;;;;;;2.72;2.30;;;22.20;99.90;;;;;;5135957;27;20039;-82
2021/06/20 00:13:59;;;;;;;2.50;2.30;;;22.30;99.90;;;;;;5118213;27;20027;-82
2021/06/20 00:16:25;;;;;;;3.70;2.83;;;22.20;99.90;;;;;;5114598;28;20051;-83
2021/06/20 00:18:52;;;;;;;2.95;2.47;;;22.30;99.90;;;;;;5114877;28;20031;-82
2021/06/20 00:21:18;;;;;;;2.70;2.35;;;22.30;99.90;;;;;;5114830;28;20026;-82
2021/06/20 00:23:44;;;;;;;5.30;2.70;;;22.40;99.90;;;;;;5114422;28;20465;-82
2021/06/20 00:26:10;;;;;;;10.10;3.03;;;22.40;99.90;;;;;;5096385;28;20027;-82
2021/06/20 00:28:36;;;;;;;3.72;2.40;;;22.50;99.90;;;;;;5094282;28;20506;-83
2021/06/20 00:31:02;;;;;;;2.80;2.40;;;22.50;99.90;;;;;;5098577;28;20028;-83
2021/06/20 00:33:28;;;;;;;2.38;2.17;;;22.50;99.90;;;;;;5108729;28;20081;-83
2021/06/20 00:35:55;;;;;;;3.72;2.50;;;22.50;99.90;;;;;;5114542;28;20469;-83
2021/06/20 00:38:21;;;;;;;5.90;2.33;;;22.60;99.90;;;;;;5113877;28;20026;-82
2021/06/20 00:40:47;;;;;;;2.65;2.30;;;22.60;99.90;;;;;;5114438;28;20043;-82
2021/06/20 00:43:12;;;;;;;4.00;2.58;;;22.60;99.70;;;;;;5114322;28;20109;-83
2021/06/20 00:45:39;;;;;;;5.78;2.85;;;22.60;99.70;;;;;;5114320;28;20024;-83
2021/06/20 00:48:05;;;;;;;4.18;2.30;;;22.60;99.50;;;;;;5114314;28;20016;-82
2021/06/20 00:50:31;;;;;;;4.10;2.70;;;22.60;99.60;;;;;;5104566;28;20051;-83
2021/06/20 00:52:59;;;;;;;4.53;2.85;;;22.60;99.40;;;;;;5098490;28;20016;-83
2021/06/20 00:55:29;;;;;;;3.47;2.35;;;22.60;99.30;;;;;;5102920;28;20374;-83
2021/06/20 00:58:00;;;;;;;5.22;2.30;;;22.50;99.30;;;;;;5112995;28;20030;-84
2021/06/20 01:00:27;;;;;;;5.32;2.80;;;22.60;98.90;;;;;;5114010;28;20016;-84
2021/06/20 01:02:53;;;;;;;5.93;2.50;;;22.50;98.90;;;;;;5114036;28;20063;-84
2021/06/20 01:05:20;;;;;;;6.57;2.50;;;22.50;98.90;;;;;;5109983;28;20358;-85
2021/06/20 01:07:50;;;;;;;2.72;2.45;;;22.50;98.80;;;;;;5113973;28;20038;-84
2021/06/20 01:10:17;;;;;;;2.55;2.10;;;22.50;98.90;;;;;;5104752;28;20028;-84
2021/06/20 01:12:43;;;;;;;2.72;2.35;;;22.50;98.90;;;;;;5107869;28;20027;-84
2021/06/20 01:15:10;;;;;;;3.95;2.63;;;22.50;98.90;;;;;;5108321;28;20351;-84
2021/06/20 01:17:37;;;;;;;3.78;2.47;;;22.50;98.80;;;;;;5102537;28;20401;-84
2021/06/20 01:20:08;;;;;;;3.97;2.33;;;22.50;98.80;;;;;;5100615;28;20024;-84
2021/06/20 01:22:35;;;;;;;2.30;2.10;;;22.50;98.70;;;;;;5093973;28;20521;-83
2021/06/20 01:25:10;;;;;;;3.10;2.20;;;22.50;98.80;;;;;;5092785;28;20020;-83
2021/06/20 01:27:39;;;;;;;2.65;2.45;;;22.60;98.70;;;;;;5108687;28;20046;-84
2021/06/20 01:30:07;;;;;;;3.08;2.40;;;22.50;98.50;;;;;;5103789;28;20028;-84
2021/06/20 01:32:33;;;;;;;2.28;2.10;;;22.50;98.90;;;;;;5095324;28;20023;-84
2021/06/20 01:34:59;;;;;;;2.15;2.03;;;22.50;98.70;;;;;;5114984;28;20030;-84
2021/06/20 01:37:25;;;;;;;3.50;2.03;;;22.50;98.50;;;;;;5113357;28;20488;-84
2021/06/20 01:39:51;;;;;;;2.50;2.30;;;22.50;98.70;;;;;;5100554;28;20028;-83
2021/06/20 01:42:18;;;;;;;3.25;2.40;;;22.50;98.60;;;;;;5113397;28;20030;-84
2021/06/20 01:44:52;;;;;;;4.65;2.30;;;22.40;98.40;;;;;;5106636;28;20022;-84
2021/06/20 01:47:18;;;;;;;2.88;2.38;;;22.40;98.40;;;;;;5113353;28;20032;-85
2021/06/20 01:49:45;;;;;;;3.53;2.35;;;22.40;98.20;;;;;;5102180;28;20085;-84
2021/06/20 01:52:11;;;;;;;3.85;2.20;;;22.40;98.10;;;;;;5113200;28;20027;-85
2021/06/20 01:54:49;;;;;;;5.00;2.50;;;22.40;98.20;;;;;;5113072;28;20030;-84
2021/06/20 01:57:15;;;;;;;4.15;2.35;;;22.30;98.10;;;;;;5112901;28;20388;-85
2021/06/20 01:59:41;;;;;;;2.90;2.35;;;22.30;98.20;;;;;;5113690;28;20424;-84
2021/06/20 02:02:07;;;;;;;2.42;2.20;;;22.20;98.20;;;;;;5104795;28;20020;-84
2021/06/20 02:04:32;;;;;;;4.45;2.22;;;22.20;98.10;;;;;;5093493;28;20107;-84
2021/06/20 02:06:58;;;;;;;5.53;2.30;;;22.20;98.00;;;;;;5094082;28;20458;-84
2021/06/20 02:09:24;;;;;;;3.75;2.40;;;22.20;97.80;;;;;;5092513;28;20028;-83
2021/06/20 02:11:49;;;;;;;6.25;2.70;;;22.20;97.60;;;;;;5092550;28;20057;-84
2021/06/20 02:14:16;;;;;;;4.22;2.30;;;22.20;97.60;;;;;;5092495;28;20024;-84
2021/06/20 02:16:42;;;;;;;3.20;2.15;;;22.20;97.70;;;;;;5094987;28;20521;-84
2021/06/20 02:19:08;;;;;;;5.18;2.22;;;22.20;97.80;;;;;;5112857;28;20027;-85
2021/06/20 02:21:34;;;;;;;2.58;1.83;;;22.20;97.70;;;;;;5112706;28;20359;-84
2021/06/20 02:23:59;;;;;;;4.43;2.35;;;22.20;97.90;;;;;;5100185;28;20081;-84
2021/06/20 02:26:25;;;;;;;3.15;2.08;;;22.20;97.80;;;;;;5099854;28;20045;-85
2021/06/20 02:28:51;;;;;;;3.92;2.20;;;22.20;97.70;;;;;;5114155;28;20110;-85
2021/06/20 02:31:16;;;;;;;3.85;2.38;;;22.20;97.60;;;;;;5113529;28;20024;-84
2021/06/20 02:33:42;;;;;;;2.10;1.63;;;22.20;97.40;;;;;;5109480;28;20422;-84
2021/06/20 02:36:08;;;;;;;2.90;1.90;;;22.20;97.50;;;;;;5096292;28;20026;-84
2021/06/20 02:38:34;;;;;;;1.92;1.83;;;22.30;97.60;;;;;;5116395;28;20051;-84
2021/06/20 02:40:59;;;;;;;3.38;1.98;;;22.30;97.60;;;;;;5117920;28;20462;-84
2021/06/20 02:43:25;;;;;;;3.25;1.92;;;22.40;97.50;;;;;;5113346;28;20031;-84
2021/06/20 02:45:51;;;;;;;2.78;1.98;;;22.40;97.20;;;;;;5096273;28;20032;-84
2021/06/20 02:48:16;;;;;;;6.03;1.80;;;22.50;97.20;;;;;;5105896;28;20110;-84
2021/06/20 02:50:42;;;;;;;3.38;2.15;;;22.50;96.80;;;;;;5096617;28;20477;-84
2021/06/20 02:53:08;;;;;;;2.47;1.77;;;22.50;96.40;;;;;;5096179;28;20020;-84
2021/06/20 02:55:34;;;;;;;2.80;1.90;;;22.60;96.50;;;;;;5096809;28;20380;-84
2021/06/20 02:58:00;;;;;;;2.13;2.00;;;22.60;96.10;;;;;;5096801;28;20106;-84
2021/06/20 03:00:26;;;;;;;4.63;2.10;;;22.60;96.20;;;;;;5095854;28;20436;-84
2021/06/20 03:02:51;;;;;;;2.33;1.77;;;22.70;96.10;;;;;;5097735;28;20539;-84
2021/06/20 03:05:18;;;;;;;2.80;2.17;;;22.60;95.90;;;;;;5096451;28;20024;-84
2021/06/20 03:07:43;;;;;;;4.50;1.90;;;22.60;95.90;;;;;;5095891;28;20028;-84
2021/06/20 03:10:09;;;;;;;3.88;1.80;;;22.70;95.50;;;;;;5096194;28;20427;-85
2021/06/20 03:12:35;;;;;;;3.42;1.70;;;22.60;95.50;;;;;;5095863;28;20027;-85
2021/06/20 03:15:02;;;;;;;4.32;1.85;;;22.60;95.40;;;;;;5095856;28;20401;-85
2021/06/20 03:17:28;;;;;;;3.38;2.15;;;22.70;95.60;;;;;;5095884;28;20079;-84
2021/06/20 03:19:54;;;;;;;4.85;1.77;;;22.70;95.30;;;;;;5095688;28;20462;-84
2021/06/20 03:22:20;;;;;;;2.42;2.17;;;22.70;95.50;;;;;;5095957;28;20382;-84
2021/06/20 03:24:48;;;;;;;3.35;1.85;;;22.70;95.50;;;;;;5098153;28;20027;-84
2021/06/20 03:27:14;;;;;;;1.70;1.50;;;22.70;95.50;;;;;;5116110;28;20028;-84
2021/06/20 03:29:40;;;;;;;2.65;1.83;;;22.80;95.50;;;;;;5106026;28;20027;-85
2021/06/20 03:32:06;;;;;;;3.58;1.80;;;22.80;95.00;;;;;;5112248;28;20391;-84
2021/06/20 03:34:33;;;;;;;2.05;1.85;;;22.80;95.00;;;;;;5115564;28;20020;-84
2021/06/20 03:37:00;;;;;;;4.18;1.92;;;22.80;94.90;;;;;;5106300;28;20052;-84
2021/06/20 03:39:25;;;;;;;3.33;1.85;;;22.80;94.90;;;;;;5096567;28;20021;-85
2021/06/20 03:41:51;;;;;;;3.15;2.00;;;22.90;94.80;;;;;;5095296;28;20031;-85
2021/06/20 03:44:17;;;;;;;2.03;1.80;;;22.90;94.90;;;;;;5114229;28;20342;-84
2021/06/20 03:46:43;;;;;;;3.88;2.05;;;23.00;94.90;;;;;;5116303;28;20028;-85
2021/06/20 03:49:09;;;;;;;3.97;2.10;;;23.00;94.60;;;;;;5101104;28;20034;-85
2021/06/20 03:51:35;;;;;;;5.03;1.90;;;23.00;94.70;;;;;;5095025;28;20462;-84
2021/06/20 03:54:00;;;;;;;2.83;1.67;;;23.00;94.50;;;;;;5094920;28;20035;-84
2021/06/20 03:56:26;;;;;;;2.05;1.85;;;23.10;94.50;;;;;;5103002;28;20028;-84
2021/06/20 03:58:53;;;;;;;2.78;1.75;;;23.10;94.30;;;;;;5109579;28;20358;-84
2021/06/20 04:01:18;;;;;;;2.47;1.60;;;23.10;94.20;;;;;;5112301;28;20044;-86
2021/06/20 04:03:44;;;;;;;5.57;2.20;;;23.10;94.20;;;;;;5105473;28;20496;-87
2021/06/20 04:06:10;;;;;;;3.42;1.65;;;23.10;94.10;;;;;;5116264;28;20477;-85
2021/06/20 04:08:36;;;;;;;2.70;1.80;;;23.10;94.00;;;;;;5108166;28;20028;-84
2021/06/20 04:11:01;;;;;;;2.03;1.80;;;23.10;94.00;;;;;;5103884;28;20027;-84
2021/06/20 04:13:27;;;;;;;1.70;1.40;;;23.10;93.90;;;;;;5103847;28;20382;-85
2021/06/20 04:15:53;;;;;;;2.20;1.70;;;23.10;94.10;;;;;;5113238;28;20138;-85
2021/06/20 04:18:18;;;;;;;1.98;1.48;;;23.10;93.80;;;;;;5115086;28;20370;-85
2021/06/20 04:20:44;;;;;;;1.98;1.75;;;23.10;93.70;;;;;;5103153;28;20020;-85
2021/06/20 04:23:10;;;;;;;4.78;1.80;;;23.10;93.90;;;;;;5095056;28;20465;-85
2021/06/20 04:25:36;;;;;;;6.40;1.88;;;23.10;93.80;;;;;;5097703;28;20393;-86
2021/06/20 04:31:22;;;;;;;3.17;1.98;;;23.10;93.70;;;;;;5088929;28;20114;-87
2021/06/20 04:33:48;;;;;;;1.92;1.75;;;23.10;93.90;;;;;;5114587;28;20054;-86
2021/06/20 04:36:14;;;;;;;4.78;2.38;;;23.20;93.60;;;;;;5114318;28;20027;-86
2021/06/20 04:38:40;;;;;;;4.03;1.90;;;23.20;93.60;;;;;;5115034;28;20027;-89
2021/06/20 04:41:10;;;;;;;4.38;1.98;;;23.30;93.60;;;;;;5115157;28;20053;-89
2021/06/20 04:46:22;;;;;;;3.60;2.00;;;23.40;93.20;;;;;;5116335;28;20036;-89
2021/06/20 04:48:53;;;;;;;4.93;1.83;;;23.40;93.00;;;;;;5115086;28;20474;-88
2021/06/20 04:51:22;;;;;;;2.15;1.48;;;23.50;93.30;;;;;;5115997;28;20027;-88
2021/06/20 04:53:49;;;;;;;2.40;1.87;;;23.60;93.40;;;;;;5115214;28;20031;-89
2021/06/20 04:56:15;;;;;;;6.28;1.83;;;23.60;93.20;;;;;;5114763;28;20034;-89
2021/06/20 04:58:41;;;;;;;2.83;1.70;;;23.70;93.20;;;;;;5114724;28;20067;-88
2021/06/20 05:01:07;;;;;;;1.70;1.50;;;23.80;92.90;;;;;;5113944;28;20024;-90
2021/06/20 05:03:33;;;;;;;3.22;1.65;;;23.90;92.70;;;;;;5114397;28;20020;-90
2021/06/20 05:05:59;;;;;;;1.63;1.52;;;23.90;92.80;;;;;;5114309;28;20035;-90
2021/06/20 05:08:27;;;;;;;2.33;1.75;;;24.00;92.90;;;;;;5108968;28;20069;-90
2021/06/20 05:10:53;;;;;;;2.30;1.42;;;24.10;92.60;;;;;;5094040;28;20024;-93
2021/06/20 05:13:20;;;;;;;3.60;1.63;;;24.30;92.40;;;;;;5094745;28;20027;-92
2021/06/20 05:15:46;;;;;;;2.38;1.75;;;24.50;92.50;;;;;;5096036;28;20123;-91
2021/06/20 05:18:12;;;;;;;5.43;2.42;;;24.50;92.40;;;;;;5097191;28;20110;-90
2021/06/20 05:20:39;;;;;;;1.63;1.52;;;24.60;92.30;;;;;;5097239;28;20027;-90
2021/06/20 05:23:05;;;;;;;2.67;1.70;;;24.60;91.60;;;;;;5097411;28;20027;-92
2021/06/20 05:25:30;;;;;;;5.57;1.80;;;24.60;91.60;;;;;;5102265;27;20468;-92
2021/06/20 05:27:56;;;;;;;1.95;1.60;;;24.60;91.20;;;;;;5118195;27;20030;-91
2021/06/20 05:30:22;;;;;;;3.97;1.67;;;24.60;90.90;;;;;;5117244;27;20380;-91
2021/06/20 05:32:49;;;;;;;3.45;1.33;;;24.50;90.70;;;;;;5117580;27;20027;-92
2021/06/20 05:35:19;;;;;;;6.45;1.70;;;24.50;90.60;;;;;;5117365;27;20030;-91
2021/06/20 05:37:44;;;;;;;4.60;1.40;;;24.50;90.80;;;;;;5117282;27;20127;-91
2021/06/20 05:40:11;;;;;;;1.75;1.55;;;24.50;90.80;;;;;;5117578;27;20058;-92
2021/06/20 05:42:36;;;;;;;3.25;1.60;;;24.50;91.00;;;;;;5117247;27;20019;-90
2021/06/20 05:45:04;;;;;;;2.60;1.50;;;24.50;91.00;;;;;;5115819;27;20050;-91
2021/06/20 05:47:30;;;;;;;3.08;1.65;;;24.50;91.00;;;;;;5117433;27;20023;-92
2021/06/20 05:49:55;;;;;;;5.13;1.80;;;24.50;90.80;;;;;;5117099;27;20031;-93
2021/06/20 05:52:22;;;;;;;2.47;1.70;;;24.60;90.80;;;;;;5117152;27;20057;-91
2021/06/20 05:54:50;;;;;;;3.42;1.95;;;24.60;91.00;;;;;;5117301;27;20087;-93
2021/06/20 05:57:17;;;;;;;2.58;1.58;;;24.60;91.00;;;;;;5117445;27;20031;-91
2021/06/20 05:59:43;;;;;;;2.17;1.40;;;24.60;91.20;;;;;;5116680;27;20019;-92
2021/06/20 06:02:09;;;;;;;4.88;1.38;;;24.60;91.10;;;;;;5117248;27;20019;-94
2021/06/20 06:04:38;;;;;;;5.00;1.50;;;24.60;90.80;;;;;;5117476;27;20060;-94
2021/06/20 06:07:04;;;;;;;6.40;1.80;;;24.70;90.30;;;;;;5117651;27;20114;-93
2021/06/20 06:09:35;;;;;;;2.85;1.30;;;24.60;90.00;;;;;;5105024;28;20024;-92
2021/06/20 06:12:01;;;;;;;3.25;1.88;;;24.70;90.20;;;;;;5096258;28;20049;-91
2021/06/20 06:14:27;;;;;;;4.03;1.60;;;24.70;90.00;;;;;;5113959;27;20031;-91
2021/06/20 06:16:53;;;;;;;3.55;1.60;;;24.70;90.00;;;;;;5116746;28;20130;-93
2021/06/20 06:19:19;;;;;;;4.20;1.63;;;24.70;90.00;;;;;;5117047;28;20048;-90
2021/06/20 06:21:47;;;;;;;2.05;1.52;;;24.70;89.60;;;;;;5116725;28;20050;-91
2021/06/20 06:24:13;;;;;;;2.83;1.70;;;24.60;90.20;;;;;;5117116;28;20022;-92
2021/06/20 06:26:39;;;;;;;1.80;1.67;;;24.60;90.00;;;;;;5102686;28;20023;-89
2021/06/20 06:29:08;;;;;;;5.55;1.90;;;24.60;89.90;;;;;;5097288;28;20027;-93
2021/06/20 06:31:36;;;;;;;6.13;1.75;;;24.70;90.10;;;;;;5118806;28;20469;-95
2021/06/20 06:34:03;;;;;;;4.22;1.80;;;24.70;89.90;;;;;;5127701;28;20058;-94
2021/06/20 06:36:29;;;;;;;5.72;1.77;;;24.80;89.40;;;;;;5123720;28;20055;-94
2021/06/20 06:38:54;;;;;;;2.97;1.67;;;24.90;89.20;;;;;;5120567;28;20023;-92
2021/06/20 06:41:20;;;;;;;4.72;1.60;;;24.90;89.10;;;;;;5117735;28;20102;-94
2021/06/20 06:43:46;;;;;;;4.95;1.98;;;24.80;88.60;;;;;;5119261;28;20026;-96
2021/06/20 06:46:12;;;;;;;3.67;1.67;;;24.80;89.10;;;;;;5121130;28;20023;-93
2021/06/20 06:48:38;;;;;;;6.47;1.67;;;24.80;89.10;;;;;;5119062;28;20035;-91
2021/06/20 06:51:05;;;;;;;4.43;1.42;;;24.80;89.60;;;;;;5116841;28;20072;-93
2021/06/20 06:53:30;;;;;;;7.15;1.77;;;24.70;88.80;;;;;;5116704;28;20023;-90
2021/06/20 06:55:57;;;;;;;6.22;1.50;;;24.80;89.10;;;;;;5116876;28;20049;-91
2021/06/20 06:58:24;;;;;;;11.93;2.15;;;24.70;89.70;;;;;;5117368;28;20031;-90
2021/06/20 07:00:50;;;;;;;3.72;1.60;;;24.80;90.10;;;;;;5117715;28;20023;-95
2021/06/20 07:03:16;;;;;;;3.78;2.05;;;24.80;88.50;;;;;;5119283;28;20023;-93
2021/06/20 07:05:42;;;;;;;2.95;1.90;;;24.80;87.90;;;;;;5122961;28;20114;-94
2021/06/20 07:08:09;;;;;;;6.95;1.80;;;24.80;88.50;;;;;;5118607;28;20034;-90
2021/06/20 07:10:35;;;;;;;2.70;1.55;;;24.90;90.10;;;;;;5116446;28;20028;-87
2021/06/20 07:13:01;;;;;;;6.50;2.00;;;24.80;90.10;;;;;;5116474;28;20026;-87
2021/06/20 07:15:28;;;;;;;3.88;1.58;;;24.90;90.00;;;;;;5100850;28;20020;-90
2021/06/20 07:17:55;;;;;;;8.65;2.03;;;24.80;88.50;;;;;;5103231;28;20040;-89
2021/06/20 07:20:21;;;;;;;5.05;2.22;;;24.90;87.90;;;;;;5096057;28;20050;-87
2021/06/20 07:22:49;;;;;;;3.08;1.90;;;24.90;88.50;;;;;;5095979;28;20051;-89
2021/06/20 07:25:20;;;;;;;5.18;2.05;;;24.90;87.70;;;;;;5106307;27;20106;-87
2021/06/20 07:27:47;;;;;;;6.10;1.85;;;24.90;87.30;;;;;;5138305;27;20080;-86
2021/06/20 07:30:15;;;;;;;4.05;1.90;;;24.90;87.50;;;;;;5119729;27;20537;-87
2021/06/20 07:32:42;;;;;;;2.60;1.63;;;24.90;87.10;;;;;;5117054;27;20037;-86
2021/06/20 07:35:09;;;;;;;7.68;1.70;;;24.90;87.30;;;;;;5119339;27;20031;-86
2021/06/20 07:37:36;;;;;;;4.80;1.77;;;24.90;87.40;;;;;;5119469;27;20054;-88
2021/06/20 07:40:04;;;;;;;6.47;2.03;;;24.90;87.80;;;;;;5120025;27;20027;-86
2021/06/20 07:42:30;;;;;;;3.20;1.90;;;25.00;87.60;;;;;;5119757;27;20046;-87
2021/06/20 07:44:56;;;;;;;4.32;1.80;;;25.00;87.20;;;;;;5119393;27;20023;-87
2021/06/20 07:47:21;;;;;;;5.03;1.83;;;25.00;86.80;;;;;;5119391;27;20027;-86
2021/06/20 07:49:47;;;;;;;4.10;1.65;;;25.00;87.50;;;;;;5119313;27;20027;-86
2021/06/20 07:52:13;;;;;;;4.32;1.77;;;25.00;88.00;;;;;;5119038;27;20072;-86
2021/06/20 07:54:42;;;;;;;6.75;1.98;;;25.10;87.60;;;;;;5137757;27;20417;-87
2021/06/20 07:57:08;;;;;;;6.82;1.75;;;25.00;87.90;;;;;;5119299;27;20030;-87
2021/06/20 07:59:34;;;;;;;5.22;1.63;;;25.00;88.10;;;;;;5119038;27;20114;-86
2021/06/20 08:02:00;;;;;;;4.47;1.60;;;25.10;88.20;;;;;;5118163;27;20067;-87
2021/06/20 08:04:25;;;;;;;10.90;1.80;;;25.10;87.20;;;;;;5119643;27;20073;-87
2021/06/20 08:06:51;;;;;;;3.13;1.45;;;25.20;87.30;;;;;;5119171;27;20472;-85
2021/06/20 08:09:18;;;;;;;12.10;1.77;;;25.10;87.40;;;;;;5118794;27;20034;-86
2021/06/20 08:11:47;;;;;;;6.40;1.60;;;25.20;87.00;;;;;;5119152;27;20071;-86
2021/06/20 08:14:13;;;;;;;6.18;1.85;;;25.30;87.10;;;;;;5118748;27;20027;-86
2021/06/20 08:16:39;;;;;;;5.00;1.83;;;25.30;86.80;;;;;;5118406;27;20103;-87
2021/06/20 08:19:04;;;;;;;5.53;1.80;;;25.30;87.40;;;;;;5119722;27;20020;-87
2021/06/20 08:21:30;;;;;;;8.38;1.63;;;25.40;86.70;;;;;;5118555;27;20058;-86
2021/06/20 08:23:56;;;;;;;6.45;1.63;;;25.40;85.90;;;;;;5118557;27;20023;-86
2021/06/20 08:26:22;;;;;;;2.65;1.63;;;25.50;85.10;;;;;;5119290;27;20027;-86
2021/06/20 08:28:47;;;;;;;6.22;1.90;;;25.50;84.80;;;;;;5118438;27;20027;-86
2021/06/20 08:31:13;;;;;;;5.05;1.88;;;25.50;85.60;;;;;;5116797;27;20030;-86
2021/06/20 08:33:39;;;;;;;5.85;2.00;;;25.60;85.00;;;;;;5116879;28;20100;-87
2021/06/20 08:36:05;;;;;;;7.20;2.03;;;25.60;84.30;;;;;;5097840;28;20425;-86
2021/06/20 08:38:31;;;;;;;6.50;2.15;;;25.60;83.40;;;;;;5098070;28;20122;-86
2021/06/20 08:40:57;;;;;;;6.72;1.50;;;25.60;82.60;;;;;;5097766;28;20106;-88
2021/06/20 08:43:23;;;;;;;12.05;2.00;;;25.60;83.30;;;;;;5116263;28;20043;-87
2021/06/20 08:45:56;;;;;;;4.07;2.33;;;25.70;82.20;;;;;;5097873;28;20019;-86
2021/06/20 08:48:22;;;;;;;7.25;1.88;;;25.70;81.70;;;;;;5116458;28;20042;-86
2021/06/20 08:50:50;;;;;;;4.22;1.73;;;25.70;82.10;;;;;;5097884;28;20537;-86
2021/06/20 08:53:17;;;;;;;5.57;1.90;;;25.70;82.50;;;;;;5098415;28;20373;-86
2021/06/20 08:55:44;;;;;;;4.38;1.60;;;25.60;83.30;;;;;;5115980;28;20089;-87
2021/06/20 08:58:36;;;;;;;3.95;1.58;;;25.70;83.90;;;;;;5097774;28;20025;-86
2021/06/20 09:01:05;;;;;;;8.48;2.08;;;25.70;83.80;;;;;;5093669;27;20023;-86
2021/06/20 09:03:39;;;;;;;2.93;1.80;;;25.80;83.90;;;;;;5117982;27;20421;-86
2021/06/20 09:06:19;;;;;;;5.95;1.77;;;25.90;84.20;;;;;;5117833;27;20426;-86
2021/06/20 09:08:55;;;;;;;9.80;2.05;;;26.00;84.40;;;;;;5118171;27;20364;-87
2021/06/20 09:11:40;;;;;;;3.20;1.75;;;26.10;85.70;;;;;;5136121;27;20098;-87
2021/06/20 09:14:10;;;;;;;5.25;2.00;;;26.20;85.00;;;;;;5117872;27;20027;-86
2021/06/20 09:16:46;;;;;;;4.10;1.65;;;26.30;83.80;;;;;;5135592;27;20047;-87
2021/06/20 09:19:12;;;;;;;6.80;1.83;;;26.40;84.40;;;;;;5136137;27;20101;-87
2021/06/20 09:21:38;;;;;;;6.75;1.88;;;26.40;83.10;;;;;;5135984;27;20026;-87
2021/06/20 09:24:04;;;;;;;8.90;2.03;;;26.40;83.60;;;;;;5117446;27;20512;-87
2021/06/20 09:26:37;;;;;;;4.38;2.30;;;26.50;83.30;;;;;;5117567;27;20442;-90
2021/06/20 09:29:05;;;;;;;9.48;2.10;;;26.50;83.30;;;;;;5117504;27;20030;-87
2021/06/20 09:31:51;;;;;;;1.55;1.45;;;26.50;82.60;;;;;;5116542;27;20034;-86
2021/06/20 09:34:17;;;;;;;7.80;1.83;;;26.50;82.60;;;;;;5117201;27;20366;-86
2021/06/20 09:36:45;;;;;;;4.43;1.67;;;26.50;82.70;;;;;;5117228;27;20029;-86
2021/06/20 09:39:18;;;;;;;3.90;1.90;;;26.40;83.10;;;;;;5117033;27;20380;-87
2021/06/20 09:41:54;;;;;;;4.25;1.70;;;26.40;83.30;;;;;;5117148;27;20111;-86
2021/06/20 09:44:31;;;;;;;4.93;1.90;;;26.30;83.70;;;;;;5117333;27;20026;-87
2021/06/20 09:46:56;;;;;;;2.65;1.70;;;26.30;84.70;;;;;;5117760;27;20130;-86
2021/06/20 09:49:29;;;;;;;7.25;1.80;;;26.40;84.20;;;;;;5117084;27;20035;-86
2021/06/20 09:51:57;;;;;;;2.65;1.65;;;26.50;82.60;;;;;;5116828;27;20552;-86
2021/06/20 09:54:30;;;;;;;4.75;2.20;;;26.50;83.20;;;;;;5115969;27;20031;-86
2021/06/20 09:56:56;;;;;;;5.88;2.00;;;26.50;81.70;;;;;;5117406;27;20019;-86
2021/06/20 09:59:31;;;;;;;7.63;2.50;;;26.40;82.70;;;;;;5135513;27;20024;-86
2021/06/20 10:02:11;;;;;;;5.00;2.40;;;26.40;83.80;;;;;;5117038;27;20019;-86
2021/06/20 10:04:38;;;;;;;4.80;2.40;;;26.50;83.60;;;;;;5116696;27;20112;-86
2021/06/20 10:07:05;;;;;;;4.32;2.70;;;26.50;84.10;;;;;;5135103;27;20026;-86
2021/06/20 10:09:36;;;;;;;5.05;2.10;;;26.50;83.70;;;;;;5116902;28;20030;-86
2021/06/20 10:12:04;;;;;;;6.15;2.10;;;26.50;84.20;;;;;;5134978;27;20109;-85
2021/06/20 10:14:30;;;;;;;4.25;1.88;;;26.50;84.40;;;;;;5116719;27;20034;-86
2021/06/20 10:17:05;;;;;;;5.35;1.60;;;26.50;84.80;;;;;;5116389;27;20048;-86
2021/06/20 10:19:31;;;;;;;4.32;1.65;;;26.60;85.70;;;;;;5115873;28;20072;-86
2021/06/20 10:22:12;;;;;;;6.00;3.38;;;26.60;85.60;;;;;;5097859;28;20026;-85
2021/06/20 10:24:51;;;;;;;6.20;2.90;;;26.60;85.80;;;;;;5114664;28;20149;-85
2021/06/20 10:27:32;;;;;;;4.68;2.80;;;26.60;86.50;;;;;;5096003;28;20049;-85
2021/06/20 10:30:01;;;;;;;3.40;2.45;;;26.60;87.20;;;;;;5096332;28;20032;-85
2021/06/20 10:32:38;;;;;;;3.35;2.10;;;26.60;85.60;;;;;;5111750;28;20464;-86
2021/06/20 10:35:09;;;;;;;6.15;2.13;;;26.70;86.00;;;;;;5109588;28;20023;-85
2021/06/20 10:37:37;;;;;;;6.28;2.53;;;26.70;84.70;;;;;;5096435;28;20034;-86
2021/06/20 10:40:25;;;;;;;4.95;1.88;;;26.70;84.50;;;;;;5095738;28;20080;-85
2021/06/20 10:42:54;;;;;;;3.00;1.75;;;26.80;84.20;;;;;;5095023;28;20498;-85
2021/06/20 10:45:30;;;;;;;3.37;1.60;;;26.80;83.70;;;;;;5113665;28;20053;-87
2021/06/20 10:47:58;;;;;;;4.68;1.65;;;26.80;85.10;;;;;;5095091;28;20051;-85
2021/06/20 10:50:36;;;;;;;4.68;2.05;;;26.80;85.10;;;;;;5094177;28;20028;-85
2021/06/20 10:53:03;;;;;;;3.67;1.90;;;26.80;84.00;;;;;;5095323;28;20123;-86
2021/06/20 10:55:58;;;;;;;6.50;1.80;;;26.90;84.20;;;;;;5095525;28;20024;-84
2021/06/20 10:58:25;;;;;;;3.83;2.00;;;27.00;84.00;;;;;;5113526;28;20047;-88
2021/06/20 11:01:04;;;;;;;3.17;2.40;;;27.10;86.00;;;;;;5103056;27;20046;-86
2021/06/20 11:03:30;;;;;;;4.55;1.90;;;27.20;84.50;;;;;;5119787;27;20038;-86
2021/06/20 11:06:18;;;;;;;65.53;4.30;;;27.20;82.40;;;;;;5120467;27;20026;-90
2021/06/20 11:08:53;;;;;;;3.33;1.50;;;27.20;75.20;;;;;;5119021;27;20039;-86
2021/06/20 11:11:21;;;;;;;15.15;2.08;;;27.30;71.80;;;;;;5119790;27;20076;-89
2021/06/20 11:14:00;;;;;;;7.30;1.75;;;27.40;69.50;;;;;;5137856;27;20027;-86
2021/06/20 11:16:37;;;;;;;3.27;1.60;;;27.40;68.80;;;;;;5115847;28;20047;-86
2021/06/20 11:19:11;;;;;;;19.85;2.22;;;27.50;66.20;;;;;;5117670;27;20020;-87
2021/06/20 11:21:48;;;;;;;6.50;1.55;;;27.40;65.70;;;;;;5116659;28;20019;-85
2021/06/20 11:24:20;;;;;;;8.27;1.33;;;27.40;65.00;;;;;;5116277;28;20045;-86
2021/06/20 11:26:53;;;;;;;16.35;8.13;;;27.50;67.50;;;;;;5113771;28;20031;-87
2021/06/20 11:29:20;;;;;;;16.75;7.13;;;27.60;68.70;;;;;;5115324;28;20051;-86
2021/06/20 11:31:55;;;;;;;31.48;18.65;;;27.70;68.80;;;;;;5103487;28;20051;-86
2021/06/20 11:34:22;;;;;;;5.45;2.88;;;27.80;70.60;;;;;;5113054;28;20585;-85
2021/06/20 11:36:48;;;;;;;4.00;1.92;;;27.90;71.50;;;;;;5094778;28;20107;-85
2021/06/20 11:39:15;;;;;;;2.63;1.35;;;28.10;71.20;;;;;;5094864;28;20111;-87
2021/06/20 11:41:52;;;;;;;3.42;1.73;;;28.30;71.90;;;;;;5095508;28;20020;-88
2021/06/20 11:44:19;;;;;;;6.47;2.00;;;28.40;69.80;;;;;;5095458;28;20013;-87
2021/06/20 11:46:47;;;;;;;3.50;1.85;;;28.50;70.20;;;;;;5095245;28;20028;-87
2021/06/20 11:49:19;;;;;;;4.32;2.05;;;28.60;70.90;;;;;;5095463;28;20023;-88
2021/06/20 11:51:52;;;;;;;2.67;1.60;;;28.70;70.60;;;;;;5096418;28;20027;-96
2021/06/20 11:54:24;;;;;;;4.53;1.77;;;28.70;73.40;;;;;;5097743;28;20028;-94
2021/06/20 11:56:51;;;;;;;5.55;2.00;;;28.80;73.30;;;;;;5098095;28;20055;-94
2021/06/20 11:59:28;;;;;;;5.20;1.55;;;29.10;73.90;;;;;;5096696;28;20027;-94
2021/06/20 12:01:56;;;;;;;2.83;1.75;;;29.70;71.50;;;;;;5097671;28;20021;-92
2021/06/20 12:04:31;;;;;;;3.78;1.25;;;30.40;69.10;;;;;;5099856;28;20096;-95
2021/06/20 12:07:01;;;;;;;1.83;1.60;;;31.10;66.30;;;;;;5116189;28;20035;-91
2021/06/20 12:09:27;;;;;;;5.55;1.90;;;31.70;65.10;;;;;;5115395;28;20023;-90
2021/06/20 12:12:02;;;;;;;2.53;1.70;;;32.20;62.30;;;;;;5116108;28;20055;-91
2021/06/20 12:14:30;;;;;;;4.15;1.40;;;32.60;60.30;;;;;;5116221;28;20031;-92
2021/06/20 12:16:56;;;;;;;4.95;1.70;;;32.90;60.10;;;;;;5116310;28;20048;-92
2021/06/20 12:19:33;;;;;;;3.05;1.50;;;32.90;59.50;;;;;;5116268;28;20047;-96
2021/06/20 12:22:11;;;;;;;5.85;1.90;;;32.70;58.10;;;;;;5115504;28;20023;-90
2021/06/20 12:24:49;;;;;;;2.33;1.50;;;32.30;56.90;;;;;;5116626;28;20103;-94
2021/06/20 12:27:32;;;;;;;2.28;1.35;;;31.70;56.90;;;;;;5115831;28;20024;-89
2021/06/20 12:29:59;;;;;;;3.78;1.50;;;31.50;57.40;;;;;;5115949;28;20024;-90
2021/06/20 12:32:31;;;;;;;5.20;1.60;;;31.20;58.10;;;;;;5115501;28;20081;-87
2021/06/20 12:34:56;;;;;;;6.35;1.67;;;30.90;58.80;;;;;;5105432;28;20039;-88
2021/06/20 12:37:22;;;;;;;3.30;1.77;;;30.80;57.10;;;;;;5094625;28;20024;-89
2021/06/20 12:39:54;;;;;;;3.72;1.60;;;30.70;58.40;;;;;;5094941;28;20026;-89
2021/06/20 12:42:21;;;;;;;8.32;1.90;;;30.60;58.10;;;;;;5095126;28;20024;-88
2021/06/20 12:44:54;;;;;;;7.32;2.15;;;30.60;57.70;;;;;;5094651;28;20531;-89
2021/06/20 12:47:35;;;;;;;6.55;1.58;;;30.70;57.40;;;;;;5094479;28;20024;-91
2021/06/20 12:50:02;;;;;;;2.10;1.30;;;30.60;58.10;;;;;;5094594;28;20077;-89
2021/06/20 12:52:36;;;;;;;5.70;1.33;;;30.60;58.00;;;;;;5094666;28;20063;-89
2021/06/20 12:55:15;;;;;;;2.35;1.35;;;30.60;59.20;;;;;;5095455;28;20024;-88
2021/06/20 12:57:56;;;;;;;5.68;1.85;;;30.60;60.20;;;;;;5094717;28;20035;-91